Time;durP1;ratioP1;P1;durP2;ratioP2;P2;SDS_P1;SDS_P2;PMS_P1;PMS_P2;Temp;Humidity;BMP_temperature;BMP_pressure;BME280_temperature;BME280_humidity;BME280_pressure;Samples;Min_cycle;Max_cycle;Signal;HPM_P1;HPM_P2
2022/09/12 00:04:53;;;;;;;9.60;8.75;;;;;;;17.05;81.36;100304.19;10296701;28;20655;-71
2022/09/12 00:09:54;;;;;;;10.65;9.68;;;;;;;17.06;81.69;100292.44;10295916;28;20050;-67
2022/09/12 00:14:56;;;;;;;10.13;8.70;;;;;;;17.06;81.44;100305.88;10295926;28;20279;-70
2022/09/12 00:19:58;;;;;;;10.23;9.27;;;;;;;17.06;81.06;100295.13;10295986;28;20528;-72
2022/09/12 00:24:59;;;;;;;12.05;9.85;;;;;;;16.99;80.83;100299.47;10295208;28;20065;-70
2022/09/12 00:30:01;;;;;;;10.10;9.20;;;;;;;16.90;81.35;100282.47;10294877;28;20579;-68
2022/09/12 00:35:02;;;;;;;9.98;9.05;;;;;;;16.90;81.12;100290.53;10294836;28;20148;-73
2022/09/12 00:40:04;;;;;;;10.98;9.98;;;;;;;16.82;81.61;100288.63;10293727;28;20046;-68
2022/09/12 00:45:18;;;;;;;10.10;9.10;;;;;;;16.91;82.30;100303.00;10293415;28;20060;-71
2022/09/12 00:50:19;;;;;;;9.57;8.65;;;;;;;16.89;81.42;100287.03;10292922;28;20046;-70
2022/09/12 00:55:30;;;;;;;10.07;8.93;;;;;;;16.88;81.85;100281.81;10294972;28;20058;-70
2022/09/12 01:00:32;;;;;;;10.13;9.13;;;;;;;16.86;81.52;100270.31;10295167;28;20050;-69
2022/09/12 01:05:38;;;;;;;8.98;8.20;;;;;;;16.82;81.88;100271.69;10294658;28;20046;-71
2022/09/12 01:10:41;;;;;;;10.25;9.27;;;;;;;16.74;82.00;100264.44;10293046;28;20058;-71
2022/09/12 01:15:42;;;;;;;9.52;8.25;;;;;;;16.77;82.01;100274.88;10308472;28;20042;-70
2022/09/12 01:20:58;;;;;;;10.73;9.73;;;;;;;16.78;81.68;100268.47;10295891;28;20081;-71
2022/09/12 01:26:15;;;;;;;9.65;8.85;;;;;;;16.70;82.62;100269.28;10293321;28;20042;-70
2022/09/12 01:32:00;;;;;;;10.00;9.10;;;;;;;16.64;82.33;100266.41;10290450;28;20065;-70
2022/09/12 01:37:23;;;;;;;9.82;8.85;;;;;;;16.60;82.21;100264.06;10261212;28;20156;-71
2022/09/12 01:42:40;;;;;;;10.47;9.33;;;;;;;16.55;82.14;100261.00;10292012;28;20046;-71
2022/09/12 01:47:57;;;;;;;9.95;8.95;;;;;;;16.38;82.79;100260.09;10286939;28;20051;-72
2022/09/12 01:53:05;;;;;;;11.02;9.45;;;;;;;16.40;83.58;100258.09;10291112;28;20061;-69
2022/09/12 01:58:11;;;;;;;9.95;8.93;;;;;;;16.40;82.63;100257.25;10292605;28;20053;-71
2022/09/12 02:03:19;;;;;;;9.90;9.00;;;;;;;16.23;83.29;100257.19;10290257;28;20054;-70
2022/09/12 02:08:45;;;;;;;10.15;9.00;;;;;;;16.26;83.57;100248.78;10306248;28;20771;-72
2022/09/12 02:13:56;;;;;;;9.15;8.25;;;;;;;16.30;83.28;100240.41;10286520;28;20693;-72
2022/09/12 02:19:06;;;;;;;9.88;8.90;;;;;;;16.26;83.23;100247.97;10291150;28;20938;-70
2022/09/12 02:24:13;;;;;;;9.43;8.35;;;;;;;16.22;83.34;100239.38;10287021;28;20069;-72
2022/09/12 02:29:14;;;;;;;9.45;8.55;;;;;;;16.15;83.31;100237.50;10287644;28;20054;-73
2022/09/12 02:34:32;;;;;;;9.60;8.60;;;;;;;16.06;83.52;100250.03;10283202;28;20061;-74
2022/09/12 02:39:33;;;;;;;8.98;8.15;;;;;;;16.10;83.81;100246.03;10289744;28;20074;-73
2022/09/12 02:44:35;;;;;;;8.70;7.90;;;;;;;15.99;83.38;100236.41;10290159;28;20070;-71
2022/09/12 02:49:37;;;;;;;8.45;7.68;;;;;;;15.92;83.45;100238.03;10289574;28;20054;-71
2022/09/12 02:54:39;;;;;;;8.85;7.63;;;;;;;15.89;84.17;100239.19;10288799;28;20057;-71
2022/09/12 02:59:40;;;;;;;8.35;7.28;;;;;;;15.90;83.77;100235.53;10289376;28;20482;-72
2022/09/12 03:05:00;;;;;;;9.07;8.18;;;;;;;15.96;83.67;100233.19;10286784;28;20659;-72
2022/09/12 03:10:23;;;;;;;8.88;8.07;;;;;;;15.87;83.19;100235.84;10289159;28;20494;-72
2022/09/12 03:15:28;;;;;;;8.98;8.07;;;;;;;15.87;83.59;100226.94;10290275;28;20053;-70
2022/09/12 03:20:44;;;;;;;9.07;8.27;;;;;;;15.77;83.65;100235.06;10287771;28;20057;-72
2022/09/12 03:25:56;;;;;;;8.65;7.78;;;;;;;15.81;84.05;100236.47;10287227;28;20433;-73
2022/09/12 03:30:58;;;;;;;8.88;8.07;;;;;;;15.79;83.26;100237.63;10286513;28;20062;-72
2022/09/12 03:35:59;;;;;;;8.48;7.70;;;;;;;15.78;83.99;100234.09;10286375;28;20050;-73
2022/09/12 03:41:01;;;;;;;8.93;8.07;;;;;;;15.73;83.26;100233.69;10288223;28;20054;-73
2022/09/12 03:46:02;;;;;;;9.18;8.20;;;;;;;15.67;83.59;100228.94;10288546;28;20046;-72
2022/09/12 03:51:06;;;;;;;8.95;8.13;;;;;;;15.61;83.89;100238.47;10287981;28;20109;-72
2022/09/12 03:56:10;;;;;;;9.57;8.63;;;;;;;15.59;83.53;100236.97;10287521;28;20049;-71
2022/09/12 04:01:14;;;;;;;9.57;8.67;;;;;;;15.54;83.97;100235.56;10289051;28;20054;-72
2022/09/12 04:06:17;;;;;;;;;;;;;;;15.60;83.57;100234.13;10291325;28;20108;-72
2022/09/12 04:11:20;;;;;;;8.90;8.05;;;;;;;15.73;84.26;100233.69;10304381;28;19932;-71
2022/09/12 04:16:22;;;;;;;9.80;8.83;;;;;;;15.61;82.91;100234.94;10290514;28;20823;-70
2022/09/12 04:21:23;;;;;;;9.85;8.95;;;;;;;15.59;84.23;100226.22;10288984;28;20355;-72
2022/09/12 04:26:28;;;;;;;11.02;9.93;;;;;;;15.54;82.95;100218.66;10289765;28;20409;-71
2022/09/12 04:31:29;;;;;;;9.38;8.48;;;;;;;15.49;83.11;100220.94;10296466;28;20042;-73
2022/09/12 04:36:33;;;;;;;8.07;7.32;;;;;;;15.48;82.55;100238.88;10293910;28;20069;-71
2022/09/12 04:41:37;;;;;;;8.63;7.93;;;;;;;15.43;82.72;100243.03;10296088;28;20046;-71
2022/09/12 04:46:42;;;;;;;8.85;7.95;;;;;;;15.38;82.81;100227.41;10297110;28;20089;-73
2022/09/12 04:51:43;;;;;;;8.43;7.50;;;;;;;15.41;82.67;100234.31;10297119;28;20054;-73
2022/09/12 04:56:48;;;;;;;8.55;7.70;;;;;;;15.42;82.44;100230.59;10262697;28;20054;-72
2022/09/12 05:01:49;;;;;;;;;;;;;;;15.37;82.42;100234.63;10267924;28;20689;-73
2022/09/12 05:06:50;;;;;;;9.52;8.63;;;;;;;15.41;82.25;100237.00;10275709;28;19933;-71
2022/09/12 05:11:52;;;;;;;10.70;8.82;;;;;;;15.30;82.43;100238.09;10253627;28;20153;-67
2022/09/12 05:17:09;;;;;;;9.38;8.45;;;;;;;15.28;83.02;100237.38;10272367;28;20092;-70
2022/09/12 05:22:10;;;;;;;10.15;9.00;;;;;;;15.31;82.78;100239.75;10270057;28;20062;-72
2022/09/12 05:27:12;;;;;;;11.65;9.18;;;;;;;15.26;83.18;100242.88;10265429;28;20384;-75
2022/09/12 05:32:13;;;;;;;10.95;8.13;;;;;;;15.29;83.42;100244.44;10268093;28;20054;-71
2022/09/12 05:37:14;;;;;;;9.40;8.38;;;;;;;15.32;82.69;100246.81;10266966;28;20069;-71
2022/09/12 05:42:16;;;;;;;9.10;8.20;;;;;;;15.40;82.72;100254.91;10267289;28;20050;-74
2022/09/12 05:47:18;;;;;;;8.85;8.00;;;;;;;15.43;82.27;100246.53;10267319;28;20220;-71
2022/09/12 05:52:19;;;;;;;9.10;8.25;;;;;;;15.50;82.46;100257.50;10267048;28;20058;-73
2022/09/12 05:57:21;;;;;;;9.27;8.38;;;;;;;15.62;82.06;100253.56;10262304;28;20065;-71
2022/09/12 06:02:22;;;;;;;10.73;8.48;;;;;;;15.77;81.99;100245.81;10266754;28;20143;-72
2022/09/12 06:07:23;;;;;;;9.02;8.13;;;;;;;15.85;81.43;100253.09;10266806;28;20061;-74
2022/09/12 06:12:27;;;;;;;9.10;7.90;;;;;;;15.85;81.77;100247.72;10263307;28;20510;-70
2022/09/12 06:17:29;;;;;;;10.48;7.95;;;;;;;15.99;81.09;100255.19;10263273;28;21760;-73
2022/09/12 06:22:30;;;;;;;7.88;7.07;;;;;;;16.20;80.04;100256.66;10275828;28;20360;-72
2022/09/12 06:27:32;;;;;;;7.22;6.57;;;;;;;16.32;79.68;100262.56;10263650;28;20054;-73
2022/09/12 06:32:33;;;;;;;7.65;6.85;;;;;;;16.50;79.57;100260.66;10266490;28;20066;-72
2022/09/12 06:37:35;;;;;;;7.40;6.60;;;;;;;16.69;79.05;100266.75;10266004;28;20550;-73
2022/09/12 06:42:36;;;;;;;7.10;6.25;;;;;;;16.86;77.72;100257.75;10261022;28;20571;-72
2022/09/12 06:47:38;;;;;;;7.30;6.30;;;;;;;16.98;76.40;100249.38;10257337;28;20188;-71
2022/09/12 06:52:39;;;;;;;7.78;6.68;;;;;;;16.94;76.85;100246.19;10262387;28;21548;-72
2022/09/12 06:57:41;;;;;;;7.03;5.50;;;;;;;17.19;75.92;100241.69;10260188;28;20399;-72
2022/09/12 07:02:42;;;;;;;6.20;5.35;;;;;;;17.13;74.43;100250.44;10278834;28;20054;-73
2022/09/12 07:07:43;;;;;;;5.32;4.63;;;;;;;17.17;74.82;100238.31;10264132;28;20414;-72
2022/09/12 07:12:46;;;;;;;4.97;4.57;;;;;;;17.45;74.66;100243.38;10264307;28;20058;-72
2022/09/12 07:17:47;;;;;;;6.00;4.72;;;;;;;17.63;72.81;100233.25;10262862;28;20057;-74
2022/09/12 07:22:49;;;;;;;4.90;4.40;;;;;;;17.79;73.31;100231.56;10261442;28;21452;-70
2022/09/12 07:27:51;;;;;;;5.00;4.50;;;;;;;18.04;71.16;100228.84;10262196;28;20050;-69
2022/09/12 07:32:53;;;;;;;4.78;4.38;;;;;;;18.17;71.58;100231.84;10262385;28;20061;-70
2022/09/12 07:37:55;;;;;;;5.07;4.07;;;;;;;18.38;71.53;100237.47;10262294;28;20409;-70
2022/09/12 07:42:56;;;;;;;4.70;4.28;;;;;;;18.60;69.98;100240.44;10262318;28;20253;-72
2022/09/12 07:47:57;;;;;;;5.28;4.28;;;;;;;18.63;69.73;100237.38;10262094;28;20050;-71
2022/09/12 07:52:59;;;;;;;7.10;4.50;;;;;;;19.03;68.90;100230.06;10259000;28;20061;-70
2022/09/12 07:58:00;;;;;;;4.90;4.40;;;;;;;19.19;68.11;100228.28;10257425;28;20114;-73
2022/09/12 08:03:02;;;;;;;5.55;4.97;;;;;;;19.33;67.88;100230.16;10265697;28;20764;-73
2022/09/12 08:08:04;;;;;;;5.32;4.82;;;;;;;19.76;66.33;100230.47;10270273;28;20517;-71
2022/09/12 08:13:07;;;;;;;4.90;4.40;;;;;;;19.87;66.18;100231.06;10283750;28;20058;-72
2022/09/12 08:18:11;;;;;;;5.60;4.53;;;;;;;20.13;65.54;100246.81;10270702;28;20066;-71
2022/09/12 08:23:12;;;;;;;4.85;4.32;;;;;;;20.46;64.41;100239.16;10284047;28;20062;-71
2022/09/12 08:28:13;;;;;;;6.22;5.63;;;;;;;20.73;62.48;100239.53;10269701;28;20149;-71
2022/09/12 08:33:14;;;;;;;5.15;4.68;;;;;;;20.96;61.85;100252.03;10268589;28;20050;-71
2022/09/12 08:38:16;;;;;;;5.82;5.28;;;;;;;21.30;60.62;100236.97;10268855;28;20065;-74
2022/09/12 08:43:30;;;;;;;5.05;4.55;;;;;;;21.66;59.19;100236.03;10269946;28;20069;-71
2022/09/12 08:48:31;;;;;;;6.95;5.55;;;;;;;21.69;57.34;100239.22;10269095;28;20552;-70
2022/09/12 08:53:34;;;;;;;6.07;5.47;;;;;;;21.91;57.69;100233.72;10268200;28;20059;-70
2022/09/12 08:58:43;;;;;;;8.20;6.15;;;;;;;22.23;56.35;100237.69;10281218;28;20054;-73
2022/09/12 09:04:06;;;;;;;6.20;5.60;;;;;;;22.35;55.27;100234.41;10283920;28;20085;-74
2022/09/12 09:09:14;;;;;;;5.30;4.65;;;;;;;22.48;57.47;100223.63;10268646;28;20057;-73
2022/09/12 09:14:48;;;;;;;6.75;6.05;;;;;;;23.06;52.75;100230.44;10266380;28;20485;-73
2022/09/12 09:20:33;;;;;;;7.82;5.95;;;;;;;23.06;54.31;100227.75;10264617;28;20050;-72
2022/09/12 09:25:47;;;;;;;6.15;5.30;;;;;;;23.62;53.58;100219.25;10266197;28;20038;-71
2022/09/12 09:30:50;;;;;;;7.20;6.47;;;;;;;24.13;51.10;100225.88;10270555;28;20077;-72
2022/09/12 09:36:04;;;;;;;14.47;6.43;;;;;;;24.10;51.37;100220.03;10281286;28;20665;-72
2022/09/12 09:41:19;;;;;;;5.65;5.05;;;;;;;24.37;51.69;100219.97;10292468;28;20282;-74
2022/09/12 09:46:20;;;;;;;6.85;6.25;;;;;;;24.61;49.57;100211.06;10274589;28;20054;-73
2022/09/12 09:51:26;;;;;;;5.50;5.03;;;;;;;24.95;49.68;100210.88;10276582;28;20073;-76
2022/09/12 09:56:32;;;;;;;5.82;5.28;;;;;;;25.21;49.20;100198.97;10273234;28;20046;-75
2022/09/12 10:01:34;;;;;;;6.93;6.22;;;;;;;25.26;47.23;100190.13;10270941;28;20061;-72
2022/09/12 10:06:36;;;;;;;6.88;6.22;;;;;;;25.22;46.46;100203.34;10276402;28;20124;-75
2022/09/12 10:11:38;;;;;;;6.07;5.53;;;;;;;26.31;43.73;100191.22;10273510;28;20053;-73
2022/09/12 10:16:53;;;;;;;9.52;6.97;;;;;;;28.08;40.94;100185.31;10273411;28;20061;-72
2022/09/12 10:21:55;;;;;;;5.30;4.80;;;;;;;29.44;38.44;100194.72;10269899;28;20065;-73
2022/09/12 10:27:06;;;;;;;6.28;5.13;;;;;;;28.84;38.62;100182.41;10269839;28;20042;-73
2022/09/12 10:32:08;;;;;;;5.55;5.05;;;;;;;28.39;39.72;100175.81;10266738;28;20073;-72
2022/09/12 10:37:18;;;;;;;4.75;4.35;;;;;;;28.49;39.63;100173.25;10268977;28;20058;-71
2022/09/12 10:42:43;;;;;;;6.07;5.47;;;;;;;30.62;35.40;100160.59;10268100;28;20050;-72
2022/09/12 10:47:45;;;;;;;4.50;4.10;;;;;;;31.29;33.22;100154.91;10269462;28;20061;-73
2022/09/12 10:52:46;;;;;;;7.55;4.70;;;;;;;31.75;32.07;100143.38;10268516;28;23083;-73
2022/09/12 10:58:22;;;;;;;4.30;3.90;;;;;;;31.88;32.69;100142.88;10268207;28;20129;-75
2022/09/12 11:03:46;;;;;;;4.00;3.42;;;;;;;32.70;30.76;100143.19;10265969;28;20061;-74
2022/09/12 11:08:54;;;;;;;4.72;4.30;;;;;;;32.23;30.14;100127.63;10250508;28;20050;-73
2022/09/12 11:14:05;;;;;;;4.35;3.53;;;;;;;32.83;29.49;100140.97;10265535;28;20065;-73
2022/09/12 11:19:31;;;;;;;3.67;3.42;;;;;;;35.37;25.44;100132.16;10268468;28;20065;-73
2022/09/12 11:25:09;;;;;;;3.38;3.08;;;;;;;37.80;23.06;100144.13;10267477;28;20061;-75
2022/09/12 11:30:13;;;;;;;3.75;3.35;;;;;;;40.01;19.71;100130.34;10264736;28;20500;-75
2022/09/12 11:35:23;;;;;;;3.50;3.22;;;;;;;40.16;19.94;100117.09;10273058;28;20054;-75
2022/09/12 11:40:49;;;;;;;3.55;3.13;;;;;;;40.42;20.17;100101.19;10282890;28;20177;-77
2022/09/12 11:45:51;;;;;;;2.90;2.70;;;;;;;41.67;18.45;100104.19;10283135;28;20062;-76
2022/09/12 11:50:53;;;;;;;3.25;2.97;;;;;;;42.73;16.09;100097.50;10281816;28;20054;-77
2022/09/12 11:56:10;;;;;;;2.97;2.78;;;;;;;40.78;18.11;100088.06;10281182;28;20065;-77
2022/09/12 12:01:23;;;;;;;3.00;2.40;;;;;;;40.70;19.42;100078.53;10296761;28;20370;-76
2022/09/12 12:06:38;;;;;;;2.80;2.53;;;;;;;42.36;16.70;100082.53;10281734;28;21697;-76
2022/09/12 12:11:46;;;;;;;2.25;2.05;;;;;;;43.54;15.69;100077.50;10281013;28;20077;-76
2022/09/12 12:16:48;;;;;;;2.10;2.00;;;;;;;43.85;15.44;100070.44;10284470;28;20060;-75
2022/09/12 12:21:50;;;;;;;2.65;2.45;;;;;;;44.45;16.24;100058.59;10299603;28;20152;-75
2022/09/12 12:26:52;;;;;;;3.53;2.40;;;;;;;44.45;14.78;100051.00;10283081;28;20069;-74
2022/09/12 12:32:02;;;;;;;2.35;2.15;;;;;;;44.90;14.79;100057.44;10282251;28;20812;-74
2022/09/12 12:37:21;;;;;;;2.33;2.13;;;;;;;44.64;14.37;100041.91;10282570;28;20089;-74
2022/09/12 12:42:35;;;;;;;3.05;2.05;;;;;;;44.68;14.60;100029.97;10283927;28;20700;-75
2022/09/12 12:47:36;;;;;;;1.95;1.85;;;;;;;45.00;14.58;100028.81;10283301;28;20053;-75
2022/09/12 12:53:02;;;;;;;2.90;2.30;;;;;;;41.62;15.75;100032.56;10278923;28;20050;-74
2022/09/12 12:58:23;;;;;;;2.97;1.90;;;;;;;42.34;15.47;100017.72;10273404;28;20646;-76
2022/09/12 13:03:29;;;;;;;2.95;1.60;;;;;;;42.90;14.76;99990.16;10274124;28;20530;-75
2022/09/12 13:08:33;;;;;;;2.10;1.65;;;;;;;41.23;15.96;100008.63;10274841;28;20050;-73
2022/09/12 13:13:37;;;;;;;2.33;1.95;;;;;;;37.80;19.06;99985.81;10273439;28;20060;-76
2022/09/12 13:18:46;;;;;;;1.63;1.52;;;;;;;36.01;21.04;99982.47;10276676;28;20054;-74
2022/09/12 13:24:03;;;;;;;1.63;1.52;;;;;;;34.69;22.00;99981.81;10281204;28;22821;-74
2022/09/12 13:29:25;;;;;;;1.90;1.65;;;;;;;33.72;24.23;99975.88;10304947;28;20053;-78
2022/09/12 13:34:32;;;;;;;2.47;2.28;;;;;;;33.20;25.46;99969.75;10330913;28;20163;-78
2022/09/12 13:39:42;;;;;;;2.20;2.10;;;;;;;33.00;26.63;99975.31;10328520;28;20130;-75
2022/09/12 13:44:46;;;;;;;2.08;1.98;;;;;;;32.81;25.37;99961.31;10294499;28;20074;-75
2022/09/12 13:49:50;;;;;;;3.17;2.40;;;;;;;32.07;26.93;99958.81;10290478;28;20061;-77
2022/09/12 13:54:54;;;;;;;1.80;1.70;;;;;;;31.05;25.64;99942.78;10286376;28;20050;-76
2022/09/12 13:59:57;;;;;;;2.70;2.50;;;;;;;30.62;27.14;99938.13;10300857;28;20054;-76
2022/09/12 14:05:10;;;;;;;2.15;1.95;;;;;;;29.90;27.58;99937.50;10283640;28;20061;-74
2022/09/12 14:10:18;;;;;;;2.35;1.60;;;;;;;29.40;28.69;99946.84;10284893;28;20088;-74
2022/09/12 14:15:24;;;;;;;4.00;2.38;;;;;;;29.41;28.48;99932.03;10282693;28;20050;-74
2022/09/12 14:20:30;;;;;;;2.88;2.28;;;;;;;29.12;29.34;99928.63;10283036;28;20046;-75
2022/09/12 14:25:38;;;;;;;6.35;3.28;;;;;;;28.68;30.09;99926.66;10275308;28;20069;-74
2022/09/12 14:30:40;;;;;;;2.38;2.17;;;;;;;28.38;30.38;99930.56;10276220;28;20110;-74
2022/09/12 14:35:44;;;;;;;3.15;2.85;;;;;;;28.24;31.45;99919.13;10262533;28;20073;-73
2022/09/12 14:40:59;;;;;;;2.40;2.20;;;;;;;27.90;31.26;99913.59;10254548;28;20363;-74
2022/09/12 14:46:13;;;;;;;4.10;2.45;;;;;;;27.62;31.66;99914.44;10287854;28;20050;-73
2022/09/12 14:51:21;;;;;;;3.33;2.25;;;;;;;27.43;32.81;99914.66;10272256;28;20388;-79
2022/09/12 14:56:43;;;;;;;1.90;1.65;;;;;;;27.24;33.08;99910.41;10276134;28;20786;-73
2022/09/12 15:01:45;;;;;;;3.88;2.75;;;;;;;26.92;33.54;99905.38;10267230;28;20058;-75
2022/09/12 15:06:46;;;;;;;3.10;2.70;;;;;;;26.51;34.23;99885.31;10269602;28;20458;-75
2022/09/12 15:11:47;;;;;;;3.08;2.65;;;;;;;26.36;34.64;99873.00;10270319;28;20138;-75
2022/09/12 15:16:49;;;;;;;3.72;3.40;;;;;;;26.25;35.50;99871.91;10283807;28;20133;-76
2022/09/12 15:21:50;;;;;;;3.22;2.80;;;;;;;26.13;36.25;99868.34;10269979;28;20100;-73
2022/09/12 15:26:52;;;;;;;3.92;3.03;;;;;;;25.99;36.23;99865.00;10269466;28;20573;-75
2022/09/12 15:31:53;;;;;;;3.70;2.67;;;;;;;25.93;36.20;99868.63;10272628;28;20053;-72
2022/09/12 15:36:55;;;;;;;4.25;2.80;;;;;;;25.72;35.88;99873.56;10274303;28;20056;-71
2022/09/12 15:41:56;;;;;;;3.50;3.20;;;;;;;25.66;36.00;99858.13;10274540;28;20050;-74
2022/09/12 15:46:57;;;;;;;3.53;3.22;;;;;;;25.53;36.50;99852.88;10273367;28;20050;-74
2022/09/12 15:51:59;;;;;;;4.05;2.97;;;;;;;25.40;36.73;99865.63;10273577;28;20073;-71
2022/09/12 15:57:00;;;;;;;3.90;2.97;;;;;;;25.31;37.73;99866.19;10280338;28;20492;-74
2022/09/12 16:02:02;;;;;;;3.53;3.22;;;;;;;25.17;38.48;99860.03;10283166;28;20560;-74
2022/09/12 16:07:03;;;;;;;3.58;3.28;;;;;;;25.06;38.72;99862.47;10284865;28;20136;-74
2022/09/12 16:12:05;;;;;;;3.60;3.10;;;;;;;24.99;39.10;99853.56;10275468;28;20046;-77
2022/09/12 16:17:06;;;;;;;3.90;3.08;;;;;;;24.97;39.18;99847.53;10279684;28;20057;-76
2022/09/12 16:22:08;;;;;;;5.82;3.15;;;;;;;24.86;39.86;99840.09;10287104;28;20046;-74
2022/09/12 16:27:09;;;;;;;3.55;3.25;;;;;;;24.78;40.00;99832.25;10308361;28;20050;-78
2022/09/12 16:32:10;;;;;;;6.22;3.15;;;;;;;24.72;40.39;99827.72;10308888;28;20138;-73
2022/09/12 16:37:12;;;;;;;3.50;3.20;;;;;;;24.53;40.32;99839.41;10304511;28;20062;-79
2022/09/12 16:42:16;;;;;;;3.60;3.17;;;;;;;24.34;41.06;99829.56;10302084;28;20112;-73
2022/09/12 16:47:18;;;;;;;3.33;2.80;;;;;;;24.26;41.22;99836.13;10302831;28;20053;-73
2022/09/12 16:52:20;;;;;;;3.33;3.03;;;;;;;24.22;41.46;99836.78;10308410;28;20065;-74
2022/09/12 16:57:22;;;;;;;4.03;3.70;;;;;;;24.18;41.44;99830.97;10318956;28;22315;-76
2022/09/12 17:02:25;;;;;;;3.58;3.28;;;;;;;24.02;42.29;99813.34;10313820;28;20040;-76
2022/09/12 17:07:26;;;;;;;3.78;3.05;;;;;;;24.03;42.47;99825.03;10318174;28;20081;-77
2022/09/12 17:12:28;;;;;;;3.63;3.33;;;;;;;23.92;42.68;99821.97;10291674;28;20505;-77
2022/09/12 17:17:29;;;;;;;3.70;3.40;;;;;;;23.81;43.16;99820.78;10298231;28;20061;-74
2022/09/12 17:22:32;;;;;;;4.33;3.83;;;;;;;23.76;43.20;99825.22;10296968;28;20997;-74
2022/09/12 17:27:33;;;;;;;4.15;3.47;;;;;;;23.76;43.74;99819.78;10301325;28;20046;-75
2022/09/12 17:32:34;;;;;;;4.22;3.83;;;;;;;23.71;43.59;99820.44;10300721;28;20046;-78
2022/09/12 17:37:36;;;;;;;4.65;4.25;;;;;;;23.65;44.43;99814.00;10302771;28;20049;-80
2022/09/12 17:42:37;;;;;;;5.25;4.25;;;;;;;23.52;44.71;99822.25;10339733;28;20050;-77
2022/09/12 17:47:39;;;;;;;5.78;5.10;;;;;;;23.44;45.04;99830.66;10290226;28;20119;-77
2022/09/12 17:52:41;;;;;;;6.05;5.35;;;;;;;23.34;45.33;99824.88;10328847;28;20056;-77
2022/09/12 17:57:44;;;;;;;6.15;5.13;;;;;;;23.29;46.10;99828.25;10299270;28;20061;-77
2022/09/12 18:02:46;;;;;;;5.63;5.03;;;;;;;23.20;46.30;99830.38;10298457;28;20103;-78
2022/09/12 18:07:47;;;;;;;5.22;4.72;;;;;;;23.07;47.13;99830.41;10293132;28;20057;-78
2022/09/12 18:12:49;;;;;;;4.88;4.47;;;;;;;22.89;48.00;99829.22;10281056;28;20050;-79
2022/09/12 18:17:50;;;;;;;5.78;5.28;;;;;;;22.85;48.10;99836.13;10276189;28;20056;-75
2022/09/12 18:22:52;;;;;;;7.55;4.88;;;;;;;22.75;49.67;99830.31;10280943;28;20054;-76
2022/09/12 18:27:53;;;;;;;4.88;4.35;;;;;;;22.68;50.35;99838.47;10282811;28;20100;-76
2022/09/12 18:32:54;;;;;;;6.95;5.40;;;;;;;22.59;51.92;99839.75;10278562;28;20573;-75
2022/09/12 18:37:56;;;;;;;6.25;5.63;;;;;;;22.64;53.03;99839.13;10274607;28;20050;-72
2022/09/12 18:42:58;;;;;;;6.40;5.80;;;;;;;22.54;53.00;99832.25;10280196;28;20061;-77
2022/09/12 18:47:59;;;;;;;6.63;6.03;;;;;;;22.44;52.65;99831.03;10298639;28;20054;-71
2022/09/12 18:53:01;;;;;;;6.07;5.53;;;;;;;22.38;53.46;99821.84;10289046;28;20050;-77
2022/09/12 18:58:02;;;;;;;6.25;5.53;;;;;;;22.33;54.57;99818.97;10282545;28;20054;-75
2022/09/12 19:03:03;;;;;;;7.78;5.80;;;;;;;22.27;53.69;99830.63;10278131;28;20061;-76
2022/09/12 19:08:05;;;;;;;6.68;6.07;;;;;;;22.15;54.53;99827.72;10274714;28;20854;-74
2022/09/12 19:13:06;;;;;;;6.47;5.70;;;;;;;22.12;54.35;99842.50;10285159;28;20057;-73
2022/09/12 19:18:08;;;;;;;7.25;6.55;;;;;;;21.97;55.12;99841.91;10305505;28;20061;-77
2022/09/12 19:23:09;;;;;;;8.38;6.68;;;;;;;21.87;54.74;99840.44;10296234;28;20054;-74
2022/09/12 19:28:11;;;;;;;7.25;6.40;;;;;;;21.86;56.03;99833.34;10304943;28;20060;-73
2022/09/12 19:33:13;;;;;;;6.78;6.18;;;;;;;21.85;55.32;99833.56;10318239;28;20129;-77
2022/09/12 19:38:14;;;;;;;6.55;5.95;;;;;;;21.75;56.14;99838.53;10336291;28;20073;-77
2022/09/12 19:43:16;;;;;;;8.00;7.20;;;;;;;21.59;57.38;99835.19;10278271;28;20070;-72
2022/09/12 19:48:19;;;;;;;7.80;7.00;;;;;;;21.56;57.13;99824.78;10281892;28;20099;-74
2022/09/12 19:53:20;;;;;;;7.00;6.40;;;;;;;21.57;57.00;99828.31;10290173;28;20461;-74
2022/09/12 19:58:21;;;;;;;7.57;6.45;;;;;;;21.52;57.08;99824.34;10309717;28;20045;-76
2022/09/12 20:03:23;;;;;;;7.43;6.60;;;;;;;21.42;57.27;99823.88;10311941;28;20137;-76
2022/09/12 20:08:24;;;;;;;6.85;6.25;;;;;;;21.32;57.88;99820.75;10324467;28;20092;-75
2022/09/12 20:13:26;;;;;;;7.13;6.40;;;;;;;21.10;58.29;99804.63;10307830;28;20060;-74
2022/09/12 20:18:28;;;;;;;6.72;6.13;;;;;;;20.98;58.32;99793.56;10283462;28;20607;-77
2022/09/12 20:23:29;;;;;;;6.25;5.65;;;;;;;20.85;58.13;99779.97;10293892;28;20058;-75
2022/09/12 20:28:31;;;;;;;6.60;5.88;;;;;;;20.80;58.58;99788.72;10299049;28;20065;-74
2022/09/12 20:33:32;;;;;;;7.03;6.35;;;;;;;20.71;58.75;99784.50;10283383;28;20134;-73
2022/09/12 20:38:34;;;;;;;6.75;6.05;;;;;;;20.69;59.09;99786.59;10277743;28;20518;-75
2022/09/12 20:43:37;;;;;;;7.75;6.88;;;;;;;20.57;59.20;99774.66;10281003;28;20046;-75
2022/09/12 20:48:38;;;;;;;6.73;6.13;;;;;;;20.52;59.11;99769.00;10281059;28;20645;-80
2022/09/12 20:53:40;;;;;;;6.95;6.35;;;;;;;20.44;59.65;99773.53;10279667;28;20050;-75
2022/09/12 20:58:41;;;;;;;6.80;6.20;;;;;;;20.35;59.56;99769.31;10283716;28;20078;-77
2022/09/12 21:03:45;;;;;;;6.60;5.93;;;;;;;20.27;59.72;99764.09;10300591;28;20065;-73
2022/09/12 21:08:47;;;;;;;5.97;5.40;;;;;;;20.25;59.93;99758.03;10304699;28;20050;-74
2022/09/12 21:13:50;;;;;;;5.90;5.30;;;;;;;20.14;60.33;99760.25;10304711;28;20066;-74
2022/09/12 21:18:54;;;;;;;6.45;5.80;;;;;;;20.04;60.60;99757.09;10315810;28;20136;-73
2022/09/12 21:24:01;;;;;;;6.35;5.80;;;;;;;19.96;61.00;99760.75;10304048;28;20042;-74
2022/09/12 21:29:02;;;;;;;6.13;5.53;;;;;;;19.94;60.86;99756.59;10302004;28;20046;-74
2022/09/12 21:34:04;;;;;;;5.97;5.35;;;;;;;19.83;61.22;99759.84;10305326;28;20057;-73
2022/09/12 21:39:05;;;;;;;5.68;5.10;;;;;;;19.80;61.26;99761.06;10303603;28;20508;-73
2022/09/12 21:44:07;;;;;;;6.88;5.72;;;;;;;19.74;61.41;99757.25;10300470;28;20042;-73
2022/09/12 21:49:08;;;;;;;5.30;4.80;;;;;;;19.70;61.78;99766.78;10305482;28;20050;-72
2022/09/12 21:54:09;;;;;;;5.22;4.72;;;;;;;19.67;61.94;99760.94;10303334;28;20272;-73
2022/09/12 21:59:11;;;;;;;5.63;4.90;;;;;;;19.60;61.78;99763.56;10300898;28;20061;-73
2022/09/12 22:04:12;;;;;;;6.25;5.50;;;;;;;19.66;62.27;99776.28;10301207;28;20065;-75
2022/09/12 22:09:15;;;;;;;7.45;5.28;;;;;;;19.68;61.89;99765.28;10299994;28;20512;-74
2022/09/12 22:14:17;;;;;;;5.80;5.30;;;;;;;19.53;61.91;99754.56;10299565;28;20050;-75
2022/09/12 22:19:19;;;;;;;5.57;5.07;;;;;;;19.47;62.15;99755.34;10298662;28;20050;-76
2022/09/12 22:24:26;;;;;;;5.80;5.30;;;;;;;19.43;62.22;99750.34;10306467;28;20141;-76
2022/09/12 22:29:27;;;;;;;5.75;4.45;;;;;;;19.39;62.65;99742.84;10307617;28;20442;-73
2022/09/12 22:34:29;;;;;;;5.45;4.95;;;;;;;19.40;62.66;99744.50;10303917;28;20054;-73
2022/09/12 22:39:31;;;;;;;6.50;5.47;;;;;;;19.27;62.74;99720.91;10302133;28;20572;-72
2022/09/12 22:44:33;;;;;;;6.10;5.07;;;;;;;19.23;63.39;99728.59;10299941;28;20050;-73
2022/09/12 22:49:34;;;;;;;6.05;5.55;;;;;;;19.24;62.85;99730.22;10303106;28;20058;-76
2022/09/12 22:54:36;;;;;;;5.85;5.35;;;;;;;19.22;63.14;99739.56;10294576;28;20042;-77
2022/09/12 22:59:37;;;;;;;5.85;5.28;;;;;;;19.23;63.22;99728.59;10302332;28;20054;-74
2022/09/12 23:04:39;;;;;;;6.32;5.80;;;;;;;19.32;63.38;99729.28;10320358;28;20485;-74
2022/09/12 23:09:40;;;;;;;6.55;5.95;;;;;;;19.32;63.12;99732.00;10302492;28;20045;-73
2022/09/12 23:14:42;;;;;;;5.78;5.28;;;;;;;19.30;63.11;99712.44;10298280;28;20051;-76
2022/09/12 23:19:44;;;;;;;5.13;4.63;;;;;;;19.21;63.66;99724.41;10296452;28;20057;-75
2022/09/12 23:24:46;;;;;;;6.60;5.90;;;;;;;19.29;64.83;99736.91;10296666;28;20461;-75
2022/09/12 23:29:51;;;;;;;6.35;5.85;;;;;;;19.26;64.43;99740.84;10302721;28;20042;-74
2022/09/12 23:34:52;;;;;;;5.60;4.97;;;;;;;19.11;64.46;99721.19;10295742;28;20046;-73